aviador You're here:

ETAR Decoded Metar

RAMSTEIN in GERMANY
Report Time2018-06-24 19:56:00
UTC Time2018-06-24 20:33:46
Flight Rules vfr VFR
Wind010° at 04 kt
W.Decomp.*RWY 08: 1.3 kt HW 3.8 kt LCW
RWY 09: 0.6 kt HW 4 kt LCW
W.Rank010° ranks 22
Current wind is below 010° avg. (4.7)
Visibility9999 m
Phenomena:N/A
Clouds:Broken 070 Hf
Expected CloudBase > 3,200 ft AGL from Temp-Dew spread
Ceiling7,000 ft
Temp17°C (ISA +4)
Dew Point09°C (59% RH)
AAT15.3°C
QNH1021 hPa
Density Alt1,086 ft
Elevation781 ft
Report Wrong Elevation
Raw Report
ETAR 241956Z AUTO 01004KT 9999 BKN070 17/09 A3016 RMK AO2 SLP213
T01670091 $=

Extra information for ETAR:More info

Metar Taf Metar & Taf Last 4 Metars F.Rules Stats Wind Profile Meteogram Temp Stats Airport Information Weather charts Add Link Nearby VenuesMetar ALERT Operation Metar Decoded Social comments